JBU963 KISP-KPBI
Flight info
| Callsign | JBU963 |
|---|---|
| Flight time | N/A |
| Altitude | 36000 |
| Route | BEADS EMJAY Q167 ZJAAY Q97 KENLL CPTAN3 |
| Aircraft | A320/M-SDE3FGHIRWY/LB1 |
Departure
| Time | 2026-04-29 11:38 |
|---|---|
| Airport | Long Island MacArthur Airport (KISP) |
Arrival
| Time | N/A |
|---|---|
| Airport | Palm Beach International Airport (KPBI) |
| Time | Latitude | Longitude | Altitude | Speed | Heading |
|---|---|---|---|---|---|
| 2026-04-29 11:16 | 40.79047 | -73.09729 | 95 ft | 0 kts | 180° |
| 2026-04-29 11:27 | 40.79064 | -73.09729 | 95 ft | 4 kts | 172° |
| 2026-04-29 11:27 | 40.79090 | -73.09738 | 97 ft | 4 kts | 150° |
| 2026-04-29 11:27 | 40.79109 | -73.09760 | 95 ft | 4 kts | 110° |
| 2026-04-29 11:27 | 40.79113 | -73.09777 | 95 ft | 0 kts | 90° |
| 2026-04-29 11:32 | 40.79113 | -73.09775 | 95 ft | 1 kts | 90° |
| 2026-04-29 11:32 | 40.79113 | -73.09744 | 95 ft | 6 kts | 89° |
| 2026-04-29 11:33 | 40.79113 | -73.09668 | 95 ft | 11 kts | 89° |
| 2026-04-29 11:33 | 40.79121 | -73.09559 | 97 ft | 12 kts | 66° |
| 2026-04-29 11:33 | 40.79180 | -73.09475 | 95 ft | 13 kts | 44° |
| 2026-04-29 11:33 | 40.79264 | -73.09465 | 96 ft | 13 kts | 343° |
| 2026-04-29 11:34 | 40.79355 | -73.09471 | 95 ft | 13 kts | 360° |
| 2026-04-29 11:34 | 40.79452 | -73.09471 | 95 ft | 14 kts | 1° |
| 2026-04-29 11:34 | 40.79554 | -73.09471 | 97 ft | 15 kts | 0° |
| 2026-04-29 11:34 | 40.79658 | -73.09470 | 96 ft | 15 kts | 360° |
| 2026-04-29 11:35 | 40.79767 | -73.09471 | 97 ft | 16 kts | 0° |
| 2026-04-29 11:35 | 40.79872 | -73.09470 | 95 ft | 13 kts | 0° |
| 2026-04-29 11:35 | 40.79936 | -73.09470 | 98 ft | 14 kts | 360° |
| 2026-04-29 11:35 | 40.80022 | -73.09471 | 98 ft | 11 kts | 360° |
| 2026-04-29 11:36 | 40.80086 | -73.09433 | 96 ft | 11 kts | 43° |
| 2026-04-29 11:36 | 40.80139 | -73.09390 | 99 ft | 8 kts | 7° |
| 2026-04-29 11:36 | 40.80183 | -73.09426 | 99 ft | 6 kts | 313° |
| 2026-04-29 11:36 | 40.80207 | -73.09463 | 100 ft | 5 kts | 298° |
| 2026-04-29 11:37 | 40.80190 | -73.09505 | 99 ft | 6 kts | 224° |
| 2026-04-29 11:37 | 40.80145 | -73.09564 | 101 ft | 18 kts | 224° |
| 2026-04-29 11:37 | 40.79852 | -73.09944 | 98 ft | 97 kts | 225° |
| 2026-04-29 11:37 | 40.79224 | -73.10771 | 101 ft | 156 kts | 225° |
| 2026-04-29 11:38 | 40.78410 | -73.11839 | 625 ft | 164 kts | 225° |
| 2026-04-29 11:38 | 40.78137 | -73.12196 | 872 ft | 164 kts | 225° |
| 2026-04-29 11:38 | 40.78091 | -73.12256 | 915 ft | 164 kts | 225° |
| 2026-04-29 11:38 | 40.77412 | -73.13151 | 1530 ft | 164 kts | 225° |
| 2026-04-29 11:39 | 40.76581 | -73.14250 | 1894 ft | 178 kts | 223° |
| 2026-04-29 11:39 | 40.75524 | -73.15252 | 2164 ft | 197 kts | 204° |
| 2026-04-29 11:39 | 40.74138 | -73.15686 | 2463 ft | 215 kts | 186° |
| 2026-04-29 11:39 | 40.72546 | -73.15854 | 2679 ft | 244 kts | 184° |
| 2026-04-29 11:40 | 40.70775 | -73.16020 | 3123 ft | 263 kts | 184° |
| 2026-04-29 11:40 | 40.68925 | -73.16217 | 3907 ft | 270 kts | 186° |
| 2026-04-29 11:40 | 40.67051 | -73.16511 | 4742 ft | 273 kts | 188° |
| 2026-04-29 11:40 | 40.65160 | -73.16853 | 5605 ft | 275 kts | 188° |
| 2026-04-29 11:41 | 40.63256 | -73.17204 | 6452 ft | 277 kts | 188° |
| 2026-04-29 11:41 | 40.61309 | -73.17556 | 7285 ft | 280 kts | 188° |
| 2026-04-29 11:41 | 40.59358 | -73.17898 | 8041 ft | 285 kts | 188° |
| 2026-04-29 11:41 | 40.57403 | -73.18234 | 8791 ft | 289 kts | 187° |
| 2026-04-29 11:42 | 40.55368 | -73.18578 | 9524 ft | 293 kts | 188° |
| 2026-04-29 11:42 | 40.53329 | -73.18920 | 10197 ft | 300 kts | 188° |
| 2026-04-29 11:42 | 40.51176 | -73.19279 | 10402 ft | 324 kts | 188° |
| 2026-04-29 11:42 | 40.48866 | -73.19662 | 10546 ft | 346 kts | 188° |
| 2026-04-29 11:43 | 40.46416 | -73.20064 | 10839 ft | 361 kts | 188° |
| 2026-04-29 11:43 | 40.43897 | -73.20479 | 11426 ft | 367 kts | 188° |
| 2026-04-29 11:43 | 40.41346 | -73.20901 | 12053 ft | 372 kts | 188° |
| 2026-04-29 11:43 | 40.38765 | -73.21329 | 12667 ft | 375 kts | 188° |
| 2026-04-29 11:44 | 40.36160 | -73.21761 | 13267 ft | 379 kts | 188° |
| 2026-04-29 11:44 | 40.33531 | -73.22195 | 13856 ft | 383 kts | 189° |
| 2026-04-29 11:44 | 40.30875 | -73.22632 | 14437 ft | 386 kts | 189° |
| 2026-04-29 11:44 | 40.28201 | -73.23072 | 14993 ft | 389 kts | 189° |
| 2026-04-29 11:45 | 40.25497 | -73.23519 | 15530 ft | 393 kts | 189° |
| 2026-04-29 11:45 | 40.22769 | -73.23967 | 16066 ft | 397 kts | 190° |
| 2026-04-29 11:45 | 40.20023 | -73.24417 | 16596 ft | 400 kts | 190° |
| 2026-04-29 11:45 | 40.17250 | -73.24872 | 17148 ft | 403 kts | 190° |
| 2026-04-29 11:46 | 40.14454 | -73.25332 | 17681 ft | 406 kts | 190° |
| 2026-04-29 11:46 | 40.11682 | -73.26015 | 18223 ft | 406 kts | 199° |
| 2026-04-29 11:46 | 40.09047 | -73.27321 | 18772 ft | 404 kts | 210° |
| 2026-04-29 11:46 | 40.06789 | -73.29086 | 19302 ft | 402 kts | 220° |
| 2026-04-29 11:47 | 40.04646 | -73.31402 | 19884 ft | 401 kts | 225° |
| 2026-04-29 11:47 | 40.02530 | -73.33790 | 20453 ft | 403 kts | 225° |
| 2026-04-29 11:47 | 40.00398 | -73.36178 | 20989 ft | 405 kts | 225° |
| 2026-04-29 11:47 | 39.98253 | -73.38570 | 21495 ft | 406 kts | 225° |
| 2026-04-29 11:48 | 39.96103 | -73.40968 | 21959 ft | 408 kts | 225° |
| 2026-04-29 11:48 | 39.93939 | -73.43377 | 22414 ft | 410 kts | 225° |
| 2026-04-29 11:48 | 39.91738 | -73.45823 | 22852 ft | 412 kts | 225° |
| 2026-04-29 11:48 | 39.89556 | -73.48251 | 23285 ft | 413 kts | 225° |
| 2026-04-29 11:49 | 39.87368 | -73.50684 | 23721 ft | 414 kts | 225° |
| 2026-04-29 11:49 | 39.85174 | -73.53123 | 24099 ft | 416 kts | 225° |
| 2026-04-29 11:49 | 39.82971 | -73.55577 | 24484 ft | 418 kts | 225° |
| 2026-04-29 11:49 | 39.80760 | -73.58044 | 24844 ft | 419 kts | 226° |
| 2026-04-29 11:50 | 39.78543 | -73.60517 | 25187 ft | 422 kts | 226° |
| 2026-04-29 11:50 | 39.76312 | -73.63008 | 25533 ft | 424 kts | 227° |
| 2026-04-29 11:50 | 39.74069 | -73.65508 | 25877 ft | 425 kts | 227° |
| 2026-04-29 11:50 | 39.71816 | -73.68008 | 26220 ft | 427 kts | 227° |
| 2026-04-29 11:51 | 39.69550 | -73.70515 | 26555 ft | 429 kts | 227° |
| 2026-04-29 11:51 | 39.67270 | -73.73031 | 26892 ft | 431 kts | 228° |
| 2026-04-29 11:51 | 39.64988 | -73.75552 | 27231 ft | 432 kts | 229° |
| 2026-04-29 11:51 | 39.62711 | -73.78066 | 27671 ft | 429 kts | 229° |
| 2026-04-29 11:52 | 39.60440 | -73.80577 | 28122 ft | 428 kts | 230° |
| 2026-04-29 11:52 | 39.58175 | -73.83080 | 28586 ft | 428 kts | 230° |
| 2026-04-29 11:52 | 39.55918 | -73.85570 | 29059 ft | 425 kts | 230° |
| 2026-04-29 11:52 | 39.53672 | -73.88044 | 29514 ft | 422 kts | 231° |
| 2026-04-29 11:53 | 39.51439 | -73.90511 | 29964 ft | 421 kts | 232° |
| 2026-04-29 11:53 | 39.49213 | -73.92959 | 30401 ft | 420 kts | 232° |
| 2026-04-29 11:53 | 39.46991 | -73.95398 | 30872 ft | 417 kts | 232° |
| 2026-04-29 11:53 | 39.44782 | -73.97816 | 31343 ft | 415 kts | 232° |
| 2026-04-29 11:54 | 39.42588 | -74.00215 | 31824 ft | 411 kts | 233° |
| 2026-04-29 11:54 | 39.40381 | -74.02627 | 32283 ft | 408 kts | 232° |
| 2026-04-29 11:54 | 39.38223 | -74.04985 | 32776 ft | 404 kts | 232° |
| 2026-04-29 11:54 | 39.36251 | -74.07139 | 33214 ft | 401 kts | 233° |
| 2026-04-29 11:55 | 39.34128 | -74.09459 | 33670 ft | 398 kts | 233° |
| 2026-04-29 11:55 | 39.32023 | -74.11757 | 34143 ft | 394 kts | 233° |
| 2026-04-29 11:55 | 39.29935 | -74.14034 | 34538 ft | 392 kts | 233° |
| 2026-04-29 11:55 | 39.27853 | -74.16305 | 34843 ft | 392 kts | 233° |
| 2026-04-29 11:56 | 39.25768 | -74.18582 | 35133 ft | 392 kts | 233° |
| 2026-04-29 11:56 | 39.23687 | -74.20856 | 35401 ft | 392 kts | 233° |
| 2026-04-29 11:56 | 39.21604 | -74.23130 | 35657 ft | 392 kts | 233° |
| 2026-04-29 11:56 | 39.19522 | -74.25395 | 35929 ft | 392 kts | 234° |
| 2026-04-29 11:57 | 39.17429 | -74.27664 | 36063 ft | 393 kts | 234° |
| 2026-04-29 11:57 | 39.15322 | -74.29950 | 36092 ft | 399 kts | 233° |
| 2026-04-29 11:57 | 39.11032 | -74.34619 | 36091 ft | 407 kts | 233° |
| 2026-04-29 11:58 | 39.06684 | -74.39313 | 36091 ft | 408 kts | 233° |
| 2026-04-29 11:58 | 39.02328 | -74.44005 | 36091 ft | 408 kts | 233° |
| 2026-04-29 11:59 | 38.97976 | -74.48689 | 36102 ft | 408 kts | 233° |
| 2026-04-29 11:59 | 38.93621 | -74.53379 | 36105 ft | 408 kts | 233° |
| 2026-04-29 12:00 | 38.89409 | -74.58193 | 36110 ft | 404 kts | 236° |
| 2026-04-29 12:00 | 38.85310 | -74.63090 | 36113 ft | 403 kts | 236° |
| 2026-04-29 12:01 | 38.81192 | -74.67977 | 36110 ft | 404 kts | 236° |
| 2026-04-29 12:01 | 38.77020 | -74.72855 | 36110 ft | 404 kts | 235° |
| 2026-04-29 12:02 | 38.72808 | -74.77640 | 36109 ft | 407 kts | 233° |
| 2026-04-29 12:02 | 38.68395 | -74.82220 | 36120 ft | 409 kts | 231° |
| 2026-04-29 12:03 | 38.63937 | -74.86737 | 36116 ft | 407 kts | 230° |
| 2026-04-29 12:03 | 38.59535 | -74.91251 | 36115 ft | 404 kts | 230° |
| 2026-04-29 12:04 | 38.55186 | -74.95770 | 36110 ft | 402 kts | 230° |
| 2026-04-29 12:04 | 38.50884 | -75.00309 | 36111 ft | 399 kts | 232° |
| 2026-04-29 12:05 | 38.46868 | -75.04806 | 36109 ft | 397 kts | 232° |
| 2026-04-29 12:05 | 38.42541 | -75.09274 | 36106 ft | 402 kts | 228° |
| 2026-04-29 12:06 | 38.38011 | -75.13491 | 36105 ft | 403 kts | 227° |
| 2026-04-29 12:06 | 38.33470 | -75.17670 | 36106 ft | 402 kts | 227° |
| 2026-04-29 12:07 | 38.28981 | -75.21887 | 36103 ft | 401 kts | 228° |
| 2026-04-29 12:07 | 38.25239 | -75.25440 | 36099 ft | 400 kts | 228° |
| 2026-04-29 12:08 | 38.20781 | -75.29678 | 36101 ft | 400 kts | 228° |
| 2026-04-29 12:08 | 38.16318 | -75.33894 | 36100 ft | 400 kts | 227° |
| 2026-04-29 12:09 | 38.11853 | -75.38100 | 36104 ft | 400 kts | 227° |
| 2026-04-29 12:09 | 38.07386 | -75.42302 | 36105 ft | 399 kts | 227° |
| 2026-04-29 12:10 | 38.02900 | -75.46449 | 36104 ft | 400 kts | 226° |
| 2026-04-29 12:10 | 37.98302 | -75.50441 | 36100 ft | 401 kts | 225° |
| 2026-04-29 12:11 | 37.93674 | -75.54411 | 36096 ft | 402 kts | 225° |
| 2026-04-29 12:11 | 37.89066 | -75.58396 | 36098 ft | 401 kts | 225° |
| 2026-04-29 12:12 | 37.84473 | -75.62398 | 36095 ft | 401 kts | 225° |
| 2026-04-29 12:12 | 37.79729 | -75.66200 | 36098 ft | 406 kts | 222° |
| 2026-04-29 12:13 | 37.74830 | -75.69802 | 36100 ft | 407 kts | 221° |
| 2026-04-29 12:13 | 37.69896 | -75.73409 | 36099 ft | 407 kts | 222° |
| 2026-04-29 12:14 | 37.65030 | -75.77038 | 36100 ft | 406 kts | 222° |
| 2026-04-29 12:14 | 37.60182 | -75.80691 | 36102 ft | 406 kts | 222° |
| 2026-04-29 12:15 | 37.55321 | -75.84342 | 36102 ft | 407 kts | 222° |
| 2026-04-29 12:15 | 37.50545 | -75.88094 | 36097 ft | 402 kts | 225° |
| 2026-04-29 12:16 | 37.46014 | -75.92160 | 36097 ft | 399 kts | 227° |
| 2026-04-29 12:16 | 37.41539 | -75.96277 | 36087 ft | 399 kts | 227° |
| 2026-04-29 12:17 | 37.37012 | -76.00340 | 36078 ft | 401 kts | 226° |
| 2026-04-29 12:17 | 37.32447 | -76.04363 | 36081 ft | 401 kts | 226° |
| 2026-04-29 12:18 | 37.27883 | -76.08378 | 36082 ft | 400 kts | 226° |
| 2026-04-29 12:18 | 37.23323 | -76.12399 | 36085 ft | 400 kts | 226° |
| 2026-04-29 12:19 | 37.18762 | -76.16414 | 36075 ft | 401 kts | 225° |
| 2026-04-29 12:19 | 37.14197 | -76.20422 | 36074 ft | 401 kts | 226° |
| 2026-04-29 12:20 | 37.09624 | -76.24435 | 36069 ft | 401 kts | 225° |
| 2026-04-29 12:20 | 37.05030 | -76.28469 | 36058 ft | 401 kts | 225° |
| 2026-04-29 12:21 | 37.00454 | -76.32480 | 36055 ft | 402 kts | 225° |
| 2026-04-29 12:21 | 36.95865 | -76.36489 | 36060 ft | 402 kts | 225° |
| 2026-04-29 12:22 | 36.91268 | -76.40500 | 36065 ft | 404 kts | 225° |
| 2026-04-29 12:22 | 36.86654 | -76.44510 | 36078 ft | 404 kts | 225° |
| 2026-04-29 12:23 | 36.82033 | -76.48533 | 36086 ft | 405 kts | 225° |
| 2026-04-29 12:23 | 36.77415 | -76.52558 | 36095 ft | 405 kts | 225° |
| 2026-04-29 12:24 | 36.72792 | -76.56572 | 36096 ft | 405 kts | 225° |
| 2026-04-29 12:24 | 36.68162 | -76.60578 | 36100 ft | 406 kts | 225° |
| 2026-04-29 12:25 | 36.63516 | -76.64584 | 36104 ft | 406 kts | 225° |
| 2026-04-29 12:26 | 36.56548 | -76.70588 | 36108 ft | 406 kts | 225° |
| 2026-04-29 12:26 | 36.51908 | -76.74589 | 36108 ft | 406 kts | 225° |
| 2026-04-29 12:27 | 36.47269 | -76.78588 | 36104 ft | 406 kts | 225° |
| 2026-04-29 12:27 | 36.42625 | -76.82574 | 36103 ft | 406 kts | 225° |
| 2026-04-29 12:28 | 36.37951 | -76.86577 | 36097 ft | 406 kts | 225° |
| 2026-04-29 12:28 | 36.33325 | -76.90573 | 36095 ft | 405 kts | 225° |
| 2026-04-29 12:29 | 36.28728 | -76.94610 | 36097 ft | 405 kts | 225° |
| 2026-04-29 12:29 | 36.24128 | -76.98647 | 36101 ft | 405 kts | 225° |
| 2026-04-29 12:30 | 36.19519 | -77.02671 | 36105 ft | 405 kts | 225° |
| 2026-04-29 12:30 | 36.14908 | -77.06679 | 36109 ft | 405 kts | 225° |
| 2026-04-29 12:31 | 36.10302 | -77.10684 | 36108 ft | 405 kts | 225° |
| 2026-04-29 12:31 | 36.05696 | -77.14682 | 36103 ft | 404 kts | 225° |
| 2026-04-29 12:32 | 36.01098 | -77.18662 | 36102 ft | 403 kts | 225° |
| 2026-04-29 12:32 | 35.96503 | -77.22646 | 36094 ft | 403 kts | 224° |
| 2026-04-29 12:33 | 35.91906 | -77.26639 | 36076 ft | 404 kts | 225° |
| 2026-04-29 12:33 | 35.87462 | -77.30840 | 36077 ft | 401 kts | 227° |
| 2026-04-29 12:34 | 35.83108 | -77.35156 | 36084 ft | 402 kts | 227° |
| 2026-04-29 12:34 | 35.78727 | -77.39450 | 36088 ft | 402 kts | 227° |
| 2026-04-29 12:35 | 35.74317 | -77.43689 | 36089 ft | 402 kts | 227° |
| 2026-04-29 12:35 | 35.69902 | -77.47913 | 36086 ft | 402 kts | 227° |
| 2026-04-29 12:36 | 35.65464 | -77.52166 | 36088 ft | 402 kts | 227° |
| 2026-04-29 12:36 | 35.61047 | -77.56406 | 36089 ft | 403 kts | 227° |
| 2026-04-29 12:37 | 35.56630 | -77.60639 | 36087 ft | 401 kts | 226° |
| 2026-04-29 12:37 | 35.52219 | -77.64859 | 36085 ft | 402 kts | 226° |
| 2026-04-29 12:38 | 35.47798 | -77.69069 | 36089 ft | 402 kts | 226° |
| 2026-04-29 12:38 | 35.43379 | -77.73275 | 36085 ft | 402 kts | 226° |
| 2026-04-29 12:39 | 35.38960 | -77.77484 | 36083 ft | 402 kts | 226° |
| 2026-04-29 12:39 | 35.34536 | -77.81694 | 36081 ft | 403 kts | 226° |
| 2026-04-29 12:40 | 35.30094 | -77.85895 | 36077 ft | 404 kts | 226° |
| 2026-04-29 12:40 | 35.25655 | -77.90103 | 36074 ft | 404 kts | 226° |
| 2026-04-29 12:41 | 35.21957 | -77.93603 | 36073 ft | 405 kts | 226° |
| 2026-04-29 12:41 | 35.17470 | -77.97840 | 36079 ft | 405 kts | 226° |
| 2026-04-29 12:42 | 35.13005 | -78.02052 | 36085 ft | 405 kts | 226° |
| 2026-04-29 12:42 | 35.08545 | -78.06256 | 36092 ft | 404 kts | 226° |
| 2026-04-29 12:43 | 35.04096 | -78.10452 | 36092 ft | 405 kts | 225° |
| 2026-04-29 12:43 | 34.99629 | -78.14640 | 36091 ft | 405 kts | 225° |
| 2026-04-29 12:44 | 34.95172 | -78.18822 | 36091 ft | 405 kts | 225° |
| 2026-04-29 12:44 | 34.90709 | -78.23013 | 36089 ft | 405 kts | 225° |
| 2026-04-29 12:45 | 34.86234 | -78.27200 | 36087 ft | 406 kts | 225° |
| 2026-04-29 12:45 | 34.81749 | -78.31382 | 36087 ft | 407 kts | 225° |
| 2026-04-29 12:46 | 34.77249 | -78.35578 | 36087 ft | 408 kts | 225° |
| 2026-04-29 12:46 | 34.72749 | -78.39776 | 36091 ft | 408 kts | 225° |
| 2026-04-29 12:47 | 34.68243 | -78.43972 | 36094 ft | 409 kts | 225° |
| 2026-04-29 12:47 | 34.63718 | -78.48169 | 36093 ft | 409 kts | 225° |
| 2026-04-29 12:48 | 34.59188 | -78.52364 | 36092 ft | 410 kts | 225° |
| 2026-04-29 12:48 | 34.54627 | -78.56590 | 36092 ft | 410 kts | 225° |
| 2026-04-29 12:49 | 34.50097 | -78.60787 | 36091 ft | 410 kts | 225° |
| 2026-04-29 12:49 | 34.45559 | -78.64980 | 36090 ft | 410 kts | 225° |
| 2026-04-29 12:50 | 34.41012 | -78.69173 | 36091 ft | 411 kts | 224° |
| 2026-04-29 12:50 | 34.36374 | -78.73245 | 36095 ft | 413 kts | 222° |
| 2026-04-29 12:51 | 34.31608 | -78.77154 | 36096 ft | 414 kts | 221° |
| 2026-04-29 12:51 | 34.26832 | -78.81049 | 36098 ft | 414 kts | 221° |
| 2026-04-29 12:52 | 34.22087 | -78.84981 | 36097 ft | 414 kts | 222° |
| 2026-04-29 12:52 | 34.17354 | -78.88939 | 36095 ft | 413 kts | 222° |
| 2026-04-29 12:53 | 34.12626 | -78.92890 | 36088 ft | 413 kts | 222° |
| 2026-04-29 12:53 | 34.07884 | -78.96827 | 36086 ft | 414 kts | 222° |
| 2026-04-29 12:54 | 34.03128 | -79.00760 | 36087 ft | 415 kts | 221° |
| 2026-04-29 12:54 | 33.98374 | -79.04694 | 36089 ft | 415 kts | 221° |
| 2026-04-29 12:55 | 33.93610 | -79.08640 | 36067 ft | 417 kts | 221° |
| 2026-04-29 12:55 | 33.88772 | -79.12643 | 36063 ft | 420 kts | 221° |
| 2026-04-29 12:56 | 33.83944 | -79.16618 | 36065 ft | 422 kts | 221° |
| 2026-04-29 12:56 | 33.79090 | -79.20611 | 36076 ft | 422 kts | 221° |
| 2026-04-29 12:57 | 33.74243 | -79.24598 | 36086 ft | 423 kts | 221° |
| 2026-04-29 12:57 | 33.69375 | -79.28590 | 36088 ft | 423 kts | 220° |
| 2026-04-29 12:58 | 33.64525 | -79.32599 | 36091 ft | 423 kts | 221° |
| 2026-04-29 12:58 | 33.59742 | -79.36690 | 36097 ft | 423 kts | 222° |
| 2026-04-29 12:59 | 33.54951 | -79.40796 | 36099 ft | 423 kts | 221° |
| 2026-04-29 12:59 | 33.50144 | -79.44872 | 36106 ft | 423 kts | 221° |
| 2026-04-29 13:00 | 33.45331 | -79.48950 | 36103 ft | 424 kts | 221° |
| 2026-04-29 13:00 | 33.40506 | -79.53024 | 36104 ft | 424 kts | 221° |
| 2026-04-29 13:01 | 33.35682 | -79.57090 | 36106 ft | 425 kts | 221° |
| 2026-04-29 13:01 | 33.30854 | -79.61160 | 36104 ft | 424 kts | 221° |
| 2026-04-29 13:02 | 33.26028 | -79.65226 | 36102 ft | 425 kts | 221° |
| 2026-04-29 13:02 | 33.21201 | -79.69285 | 36096 ft | 425 kts | 221° |
| 2026-04-29 13:03 | 33.16327 | -79.73374 | 36097 ft | 425 kts | 221° |
| 2026-04-29 13:03 | 33.11483 | -79.77427 | 36102 ft | 426 kts | 221° |
| 2026-04-29 13:04 | 33.06634 | -79.81481 | 36105 ft | 426 kts | 221° |
| 2026-04-29 13:04 | 33.01778 | -79.85541 | 36104 ft | 426 kts | 221° |
| 2026-04-29 13:05 | 32.96913 | -79.89609 | 36103 ft | 427 kts | 221° |
| 2026-04-29 13:05 | 32.92038 | -79.93680 | 36104 ft | 429 kts | 221° |
| 2026-04-29 13:06 | 32.87150 | -79.97749 | 36110 ft | 429 kts | 221° |
| 2026-04-29 13:06 | 32.82258 | -80.01818 | 36114 ft | 429 kts | 220° |
| 2026-04-29 13:07 | 32.77350 | -80.05886 | 36119 ft | 430 kts | 220° |
| 2026-04-29 13:07 | 32.72433 | -80.09963 | 36122 ft | 432 kts | 220° |
| 2026-04-29 13:08 | 32.67497 | -80.14041 | 36125 ft | 432 kts | 220° |
| 2026-04-29 13:08 | 32.62557 | -80.18122 | 36127 ft | 433 kts | 220° |
| 2026-04-29 13:09 | 32.57576 | -80.22237 | 36131 ft | 434 kts | 220° |
| 2026-04-29 13:09 | 32.52654 | -80.26297 | 36129 ft | 434 kts | 219° |
| 2026-04-29 13:10 | 32.47303 | -80.29840 | 36127 ft | 439 kts | 214° |
| 2026-04-29 13:10 | 32.41915 | -80.33244 | 36126 ft | 440 kts | 213° |
| 2026-04-29 13:11 | 32.36520 | -80.36656 | 36139 ft | 440 kts | 213° |
| 2026-04-29 13:11 | 32.31119 | -80.40069 | 36145 ft | 440 kts | 213° |
| 2026-04-29 13:12 | 32.25716 | -80.43478 | 36150 ft | 440 kts | 213° |
| 2026-04-29 13:12 | 32.20316 | -80.46880 | 36152 ft | 440 kts | 213° |
| 2026-04-29 13:13 | 32.14905 | -80.50283 | 36154 ft | 440 kts | 213° |
| 2026-04-29 13:13 | 32.09495 | -80.53671 | 36154 ft | 440 kts | 213° |
| 2026-04-29 13:14 | 32.05000 | -80.56489 | 36155 ft | 440 kts | 213° |
| 2026-04-29 13:14 | 31.99591 | -80.59877 | 36150 ft | 440 kts | 213° |
| 2026-04-29 13:15 | 31.94145 | -80.63283 | 36138 ft | 441 kts | 213° |
| 2026-04-29 13:15 | 31.88727 | -80.66679 | 36129 ft | 442 kts | 213° |
| 2026-04-29 13:16 | 31.83298 | -80.70067 | 36126 ft | 442 kts | 213° |
| 2026-04-29 13:16 | 31.77850 | -80.73453 | 36131 ft | 443 kts | 213° |
| 2026-04-29 13:17 | 31.72436 | -80.76826 | 36125 ft | 444 kts | 213° |
| 2026-04-29 13:17 | 31.66943 | -80.80245 | 36125 ft | 444 kts | 213° |